Time;durP1;ratioP1;P1;durP2;ratioP2;P2;SDS_P1;SDS_P2;PMS_P1;PMS_P2;Temp;Humidity;BMP_temperature;BMP_pressure;BME280_temperature;BME280_humidity;BME280_pressure;Samples;Min_cycle;Max_cycle;Signal;HPM_P1;HPM_P2
2021/12/02 00:00:47;;;;;;;9.55;2.55;;;;;;;4.87;85.93;99743.41;5009039;28;20029;-69
2021/12/02 00:03:12;;;;;;;8.68;2.55;;;;;;;4.87;85.52;99746.91;4994252;28;20034;-73
2021/12/02 00:05:38;;;;;;;9.00;2.75;;;;;;;4.81;85.62;99753.13;4994525;28;20037;-69
2021/12/02 00:08:04;;;;;;;12.65;2.55;;;;;;;4.76;85.41;99748.41;5002460;28;20026;-70
2021/12/02 00:10:31;;;;;;;10.82;2.97;;;;;;;4.74;86.40;99755.00;5013978;28;20026;-71
2021/12/02 00:12:58;;;;;;;9.20;2.75;;;;;;;4.72;86.36;99752.53;5005068;28;20022;-68
2021/12/02 00:15:29;;;;;;;9.75;2.35;;;;;;;4.72;86.34;99757.91;4994401;28;20458;-72
2021/12/02 00:18:19;;;;;;;10.40;2.50;;;;;;;4.72;86.06;99763.25;4993998;28;20038;-68
2021/12/02 00:23:36;;;;;;;10.23;3.20;;;;;;;4.63;85.75;99756.50;4994148;28;20101;-71
2021/12/02 00:26:09;;;;;;;9.20;2.00;;;;;;;4.60;85.62;99762.28;4993908;28;20030;-68
2021/12/02 00:28:37;;;;;;;9.20;1.90;;;;;;;4.59;86.61;99768.72;5005613;28;20125;-68
2021/12/02 00:31:02;;;;;;;6.28;1.55;;;;;;;4.63;86.39;99764.53;5013198;28;20105;-68
2021/12/02 00:33:30;;;;;;;10.80;2.00;;;;;;;4.66;86.26;99755.28;5013473;28;20125;-71
2021/12/02 00:35:55;;;;;;;8.80;2.22;;;;;;;4.68;86.95;99759.38;5012176;28;20088;-68
2021/12/02 00:38:23;;;;;;;8.77;1.98;;;;;;;4.71;86.77;99750.94;5013298;28;20037;-69
2021/12/02 00:40:50;;;;;;;8.27;2.10;;;;;;;4.71;87.09;99747.41;5012794;28;20045;-70
2021/12/02 00:43:17;;;;;;;14.50;2.40;;;;;;;4.70;87.14;99738.56;5012522;28;20054;-68
2021/12/02 00:45:44;;;;;;;9.05;2.42;;;;;;;4.72;86.95;99741.81;5013123;28;20473;-70
2021/12/02 00:48:12;;;;;;;7.70;1.90;;;;;;;4.68;86.99;99746.00;5011603;28;20045;-68
2021/12/02 00:50:42;;;;;;;11.43;2.20;;;;;;;4.69;87.40;99744.94;5013047;28;20385;-69
2021/12/02 00:53:07;;;;;;;7.90;2.00;;;;;;;4.71;86.89;99744.72;5011331;28;20025;-69
2021/12/02 00:55:41;;;;;;;9.30;2.10;;;;;;;4.75;87.49;99745.94;5012781;28;20040;-72
2021/12/02 00:58:11;;;;;;;9.32;2.47;;;;;;;4.70;87.83;99741.22;5012652;28;20453;-70
2021/12/02 01:00:37;;;;;;;5.28;1.92;;;;;;;4.69;87.46;99736.91;5009374;28;20080;-70
2021/12/02 01:03:03;;;;;;;11.13;2.42;;;;;;;4.70;87.84;99735.06;5012762;28;20476;-70
2021/12/02 01:05:29;;;;;;;7.30;2.00;;;;;;;4.67;88.46;99732.81;5002755;28;20104;-70
2021/12/02 01:07:55;;;;;;;8.45;1.92;;;;;;;4.67;88.54;99738.16;5012848;28;20034;-70
2021/12/02 01:10:21;;;;;;;14.88;2.70;;;;;;;4.68;88.92;99742.47;5012382;28;20481;-72
2021/12/02 01:12:47;;;;;;;9.18;2.30;;;;;;;4.67;88.35;99747.03;5012373;28;20461;-68
2021/12/02 01:15:13;;;;;;;12.18;2.35;;;;;;;4.66;88.86;99760.63;5012401;28;20065;-71
2021/12/02 01:17:39;;;;;;;8.75;1.95;;;;;;;4.70;88.10;99751.94;5012887;28;20057;-70
2021/12/02 01:20:05;;;;;;;11.30;2.22;;;;;;;4.67;88.96;99754.25;5011668;28;20033;-70
2021/12/02 01:22:35;;;;;;;7.28;2.17;;;;;;;4.66;89.00;99749.91;5011985;28;20042;-68
2021/12/02 01:25:01;;;;;;;9.80;2.38;;;;;;;4.69;88.27;99754.84;5012365;28;20639;-69
2021/12/02 01:27:26;;;;;;;9.25;1.92;;;;;;;4.63;88.25;99759.19;5012395;28;20036;-69
2021/12/02 01:29:53;;;;;;;8.18;1.75;;;;;;;4.63;88.99;99742.31;5012368;28;20454;-69
2021/12/02 01:32:18;;;;;;;5.75;1.70;;;;;;;4.60;87.33;99747.06;5012076;28;20034;-69
2021/12/02 01:34:47;;;;;;;8.10;1.60;;;;;;;4.57;87.69;99766.22;5012288;28;20030;-68
2021/12/02 01:37:14;;;;;;;7.00;1.60;;;;;;;4.60;87.17;99759.63;5012540;28;20061;-69
2021/12/02 01:39:39;;;;;;;9.55;1.33;;;;;;;4.56;87.86;99763.75;5012268;28;20029;-69
2021/12/02 01:42:07;;;;;;;4.47;1.27;;;;;;;4.56;87.93;99766.44;5012129;28;20044;-69
2021/12/02 01:44:39;;;;;;;8.18;1.52;;;;;;;4.55;88.04;99767.47;5012404;28;20044;-72
2021/12/02 01:47:11;;;;;;;5.88;1.50;;;;;;;4.53;88.60;99764.16;5012207;28;20529;-68
2021/12/02 01:49:40;;;;;;;7.53;1.83;;;;;;;4.51;88.60;99755.53;5012240;28;20038;-69
2021/12/02 01:52:10;;;;;;;8.27;2.05;;;;;;;4.50;89.28;99767.28;5012037;28;20036;-69
2021/12/02 01:54:42;;;;;;;8.38;1.65;;;;;;;4.51;88.53;99768.94;5012224;28;20041;-69
2021/12/02 01:57:08;;;;;;;5.47;1.83;;;;;;;4.49;88.83;99762.97;5012351;28;20100;-70
2021/12/02 01:59:36;;;;;;;7.63;2.08;;;;;;;4.53;87.91;99765.00;5012575;28;20030;-70
2021/12/02 02:02:10;;;;;;;7.10;1.60;;;;;;;4.45;88.33;99757.19;5000869;28;20050;-69
2021/12/02 02:04:36;;;;;;;8.88;1.65;;;;;;;4.41;88.44;99762.16;5012956;28;20026;-68
2021/12/02 02:07:05;;;;;;;9.27;1.90;;;;;;;4.38;88.04;99757.22;5016010;28;20070;-71
2021/12/02 02:09:33;;;;;;;4.75;1.52;;;;;;;4.35;88.56;99762.16;5016251;28;20109;-71
2021/12/02 02:12:01;;;;;;;3.80;1.25;;;;;;;4.29;88.44;99769.22;5016298;28;20038;-67
2021/12/02 02:14:28;;;;;;;5.13;1.77;;;;;;;4.29;88.51;99765.69;5016135;28;20029;-69
2021/12/02 02:16:54;;;;;;;6.10;1.27;;;;;;;4.25;88.35;99762.63;5016064;28;20029;-71
2021/12/02 02:19:20;;;;;;;6.32;1.88;;;;;;;4.21;88.66;99767.59;5015782;28;20033;-71
2021/12/02 02:21:46;;;;;;;7.43;1.20;;;;;;;4.20;88.45;99765.13;5016003;28;20029;-72
2021/12/02 02:24:14;;;;;;;3.92;1.13;;;;;;;4.18;88.11;99761.81;5015685;28;20037;-68
2021/12/02 02:26:41;;;;;;;8.27;2.05;;;;;;;4.17;88.66;99763.69;5014616;28;20052;-69
2021/12/02 02:29:10;;;;;;;5.68;1.50;;;;;;;4.16;88.32;99762.03;5014887;28;20127;-71
2021/12/02 02:31:37;;;;;;;7.05;1.70;;;;;;;4.12;88.11;99751.94;5015523;28;20034;-67
2021/12/02 02:34:03;;;;;;;4.38;1.30;;;;;;;4.12;87.60;99758.09;5015046;28;20034;-69
2021/12/02 02:36:33;;;;;;;2.15;1.10;;;;;;;4.11;88.31;99763.66;5015544;28;20036;-70
2021/12/02 02:39:00;;;;;;;4.03;1.33;;;;;;;4.10;88.32;99767.41;5015324;28;20027;-70
2021/12/02 02:41:35;;;;;;;5.55;1.27;;;;;;;4.13;87.92;99770.47;5015205;28;20091;-68
2021/12/02 02:44:02;;;;;;;3.00;0.95;;;;;;;4.09;87.16;99758.53;5015249;28;20184;-72
2021/12/02 02:46:39;;;;;;;5.50;1.25;;;;;;;4.03;87.60;99760.22;5015156;28;20038;-70
2021/12/02 02:49:07;;;;;;;6.57;1.50;;;;;;;3.97;87.88;99770.91;5015235;28;20026;-70
2021/12/02 02:51:34;;;;;;;3.65;1.23;;;;;;;3.98;87.44;99768.03;5015021;28;20041;-71
2021/12/02 02:54:04;;;;;;;5.68;1.35;;;;;;;3.96;87.41;99759.41;5014766;28;20042;-66
2021/12/02 02:56:31;;;;;;;5.15;1.02;;;;;;;3.93;87.23;99762.50;5015089;28;20029;-69
2021/12/02 02:59:16;;;;;;;5.57;1.40;;;;;;;3.92;87.36;99766.19;5015192;28;20034;-69
2021/12/02 03:01:48;;;;;;;4.78;1.15;;;;;;;3.89;87.65;99769.28;5011643;28;20050;-70
2021/12/02 03:07:01;;;;;;;8.95;1.30;;;;;;;3.83;87.36;99770.13;5015280;28;20042;-68
2021/12/02 03:12:11;;;;;;;6.07;1.52;;;;;;;3.81;87.47;99761.47;5014954;28;20041;-70
2021/12/02 03:17:02;;;;;;;4.75;1.50;;;;;;;3.79;87.59;99766.19;5013958;28;20548;-69
2021/12/02 03:19:29;;;;;;;4.93;1.38;;;;;;;3.79;87.77;99768.88;5014419;28;20104;-71
2021/12/02 03:21:57;;;;;;;7.65;1.70;;;;;;;3.77;87.53;99777.09;5014862;28;20026;-68
2021/12/02 03:24:23;;;;;;;3.53;1.42;;;;;;;3.76;87.70;99774.63;5013980;28;20461;-68
2021/12/02 03:26:49;;;;;;;5.50;1.77;;;;;;;3.78;88.28;99772.59;5014524;28;20030;-71
2021/12/02 03:29:15;;;;;;;6.63;1.50;;;;;;;3.73;87.71;99771.34;5012762;28;20034;-71
2021/12/02 03:31:41;;;;;;;8.82;2.08;;;;;;;3.79;88.25;99780.41;5003568;28;20049;-70
2021/12/02 03:34:07;;;;;;;5.35;1.58;;;;;;;3.82;88.18;99789.88;5001117;28;20397;-71
2021/12/02 03:36:33;;;;;;;3.45;1.45;;;;;;;3.82;87.87;99779.16;4994918;28;20030;-70
2021/12/02 03:38:59;;;;;;;8.68;1.58;;;;;;;3.80;88.70;99786.59;4997070;28;20038;-70
2021/12/02 03:41:24;;;;;;;8.20;1.80;;;;;;;3.78;88.40;99783.31;5014038;28;20040;-72
2021/12/02 03:43:50;;;;;;;7.40;1.50;;;;;;;3.83;88.42;99797.69;5012646;28;20058;-72
2021/12/02 03:46:22;;;;;;;8.25;1.58;;;;;;;3.88;86.86;99807.78;4994451;28;20039;-69
2021/12/02 03:48:49;;;;;;;8.18;1.48;;;;;;;3.74;86.86;99804.28;4995128;28;20076;-69
2021/12/02 03:51:14;;;;;;;10.50;1.73;;;;;;;3.68;86.40;99805.09;4997812;28;20469;-71
2021/12/02 03:53:40;;;;;;;7.05;1.45;;;;;;;3.66;86.67;99802.63;5003089;28;20037;-71
2021/12/02 03:56:07;;;;;;;7.22;1.88;;;;;;;3.67;86.82;99787.44;5014233;28;20034;-72
2021/12/02 03:58:35;;;;;;;6.68;1.60;;;;;;;3.60;87.49;99782.06;5014068;28;20034;-73
2021/12/02 04:01:00;;;;;;;7.90;1.35;;;;;;;3.64;87.78;99783.31;5010744;28;20048;-73
2021/12/02 04:03:25;;;;;;;7.22;1.80;;;;;;;3.67;88.01;99782.06;5013619;28;20037;-69
2021/12/02 04:05:51;;;;;;;4.30;1.40;;;;;;;3.68;87.02;99773.84;5013805;28;20034;-69
2021/12/02 04:08:16;;;;;;;9.30;1.85;;;;;;;3.70;87.52;99777.13;5013832;28;20030;-71
2021/12/02 04:10:43;;;;;;;7.05;1.38;;;;;;;3.70;87.17;99778.97;5028721;28;20036;-72
2021/12/02 04:15:40;;;;;;;6.38;1.48;;;;;;;3.68;87.27;99779.19;5033658;28;20045;-69
2021/12/02 04:18:07;;;;;;;6.95;1.67;;;;;;;3.68;87.50;99781.88;5033591;28;20148;-73
2021/12/02 04:20:34;;;;;;;7.75;1.33;;;;;;;3.70;87.22;99777.13;5033519;28;20037;-71
2021/12/02 04:22:59;;;;;;;6.88;1.35;;;;;;;3.70;87.62;99777.13;5032204;28;20472;-71
2021/12/02 04:25:26;;;;;;;6.32;1.55;;;;;;;3.69;87.34;99774.66;5032969;28;20075;-70
2021/12/02 04:27:52;;;;;;;7.22;1.23;;;;;;;3.63;87.35;99770.94;5032843;28;20091;-73
2021/12/02 04:30:21;;;;;;;5.70;1.27;;;;;;;3.65;87.27;99778.75;5032439;28;20457;-72
2021/12/02 04:32:47;;;;;;;5.68;1.45;;;;;;;3.61;87.50;99778.34;5033180;28;20488;-69
2021/12/02 04:35:12;;;;;;;4.97;1.17;;;;;;;3.62;88.12;99771.16;5032654;28;20021;-69
2021/12/02 04:37:38;;;;;;;7.60;1.55;;;;;;;3.61;87.83;99778.34;5033120;28;20044;-71
2021/12/02 04:40:05;;;;;;;7.97;1.55;;;;;;;3.65;87.90;99786.78;5032319;28;20029;-71
2021/12/02 04:42:30;;;;;;;8.13;1.48;;;;;;;3.67;88.24;99787.44;5013219;28;20667;-71
2021/12/02 04:44:55;;;;;;;4.40;1.15;;;;;;;3.68;87.77;99795.25;5023830;28;20052;-71
2021/12/02 04:47:21;;;;;;;6.05;1.48;;;;;;;3.75;87.35;99799.78;5032559;28;20112;-72
2021/12/02 04:49:46;;;;;;;6.97;1.50;;;;;;;3.72;87.69;99803.66;5032764;28;20041;-71
2021/12/02 04:52:12;;;;;;;7.25;1.35;;;;;;;3.71;87.69;99810.88;5032730;28;20037;-68
2021/12/02 04:54:37;;;;;;;7.63;1.65;;;;;;;3.68;87.63;99811.28;5032437;28;20072;-68
2021/12/02 04:57:03;;;;;;;7.07;1.48;;;;;;;3.65;88.11;99811.69;5032218;28;20038;-71
2021/12/02 04:59:28;;;;;;;6.93;1.40;;;;;;;3.58;88.04;99810.88;5032427;28;20032;-69
2021/12/02 05:01:53;;;;;;;5.63;1.45;;;;;;;3.63;88.22;99808.41;5029125;28;20046;-69
2021/12/02 05:04:18;;;;;;;9.05;1.88;;;;;;;3.64;88.56;99803.84;5032143;28;20469;-69
2021/12/02 05:06:44;;;;;;;6.78;1.40;;;;;;;3.65;88.29;99811.69;5032511;28;20075;-70
2021/12/02 05:09:09;;;;;;;9.55;1.42;;;;;;;3.64;87.66;99811.88;5032419;28;20548;-72
2021/12/02 05:11:35;;;;;;;7.28;1.35;;;;;;;3.66;88.30;99817.88;5032167;28;20038;-67
2021/12/02 05:14:00;;;;;;;7.82;1.70;;;;;;;3.66;88.13;99829.38;5032085;28;20041;-72
2021/12/02 05:16:26;;;;;;;6.32;1.50;;;;;;;3.66;88.16;99833.94;5032121;28;20098;-71
2021/12/02 05:18:51;;;;;;;10.35;1.55;;;;;;;3.62;88.08;99836.16;5032478;28;20080;-68
2021/12/02 05:21:17;;;;;;;6.70;1.35;;;;;;;3.56;88.40;99834.31;5032415;28;20035;-72
2021/12/02 05:23:43;;;;;;;7.70;1.40;;;;;;;3.52;87.38;99841.94;5032443;28;20109;-71
2021/12/02 05:26:08;;;;;;;4.65;1.13;;;;;;;3.39;86.58;99844.56;5032442;28;20033;-70
2021/12/02 05:28:34;;;;;;;6.30;1.08;;;;;;;3.29;86.82;99844.97;5031717;28;20112;-68
2021/12/02 05:30:59;;;;;;;3.67;1.17;;;;;;;3.22;86.89;99844.13;5032494;28;20033;-70
2021/12/02 05:33:25;;;;;;;3.13;0.80;;;;;;;3.14;85.70;99839.78;5031989;28;20029;-68
2021/12/02 05:35:50;;;;;;;3.65;0.57;;;;;;;3.01;85.39;99832.53;5032547;28;20064;-69
2021/12/02 05:38:15;;;;;;;3.25;0.50;;;;;;;2.88;86.90;99837.84;5031766;28;20028;-70
2021/12/02 05:40:40;;;;;;;2.50;0.77;;;;;;;2.82;86.58;99833.28;5015061;28;20037;-71
2021/12/02 05:43:07;;;;;;;3.50;0.43;;;;;;;2.77;86.70;99825.06;5030555;28;20050;-70
2021/12/02 05:45:32;;;;;;;2.75;0.70;;;;;;;2.71;87.29;99831.19;5035827;28;20116;-70
2021/12/02 05:47:58;;;;;;;2.47;0.57;;;;;;;2.70;87.55;99832.22;5036095;28;20658;-71
2021/12/02 05:50:23;;;;;;;4.85;0.70;;;;;;;2.70;87.86;99840.22;5035830;28;20038;-72
2021/12/02 05:52:49;;;;;;;1.40;0.45;;;;;;;2.70;88.57;99845.56;5035588;28;20034;-72
2021/12/02 05:55:14;;;;;;;2.17;0.80;;;;;;;2.71;88.79;99857.91;5035982;28;20025;-70
2021/12/02 05:57:39;;;;;;;2.95;0.70;;;;;;;2.68;88.87;99848.44;5036019;28;20124;-69
2021/12/02 06:00:06;;;;;;;3.58;0.80;;;;;;;2.66;89.02;99848.63;5036108;28;20026;-69
2021/12/02 06:02:32;;;;;;;4.13;0.90;;;;;;;2.76;89.09;99844.78;5016595;28;20200;-70
2021/12/02 06:04:57;;;;;;;4.78;0.60;;;;;;;2.75;88.21;99837.78;5016350;28;20057;-71
2021/12/02 06:07:22;;;;;;;3.08;0.60;;;;;;;2.73;87.94;99837.16;5015810;28;20465;-69
2021/12/02 06:09:48;;;;;;;2.35;0.50;;;;;;;2.79;86.95;99833.69;5016256;28;20033;-70
2021/12/02 06:12:14;;;;;;;2.90;0.55;;;;;;;2.75;87.55;99840.44;5032297;28;20112;-69
2021/12/02 06:14:39;;;;;;;2.25;0.80;;;;;;;2.77;87.91;99839.22;5025176;28;20033;-70
2021/12/02 06:17:05;;;;;;;1.98;0.75;;;;;;;2.80;87.57;99830.00;5033439;28;20041;-71
2021/12/02 06:19:30;;;;;;;5.05;0.90;;;;;;;2.86;88.07;99845.25;5035602;28;20037;-72
2021/12/02 06:21:57;;;;;;;3.78;0.95;;;;;;;2.89;87.48;99844.03;5035921;28;20021;-71
2021/12/02 06:24:29;;;;;;;2.03;0.70;;;;;;;2.88;87.95;99845.84;5035686;28;20514;-71
2021/12/02 06:26:56;;;;;;;1.77;0.80;;;;;;;2.93;87.13;99855.94;5035732;28;20029;-72
2021/12/02 06:29:22;;;;;;;6.45;1.20;;;;;;;2.93;87.38;99854.13;5035449;28;20435;-72
2021/12/02 06:31:47;;;;;;;4.65;0.93;;;;;;;2.94;87.49;99865.63;5034973;28;20064;-72
2021/12/02 06:34:12;;;;;;;3.38;0.95;;;;;;;2.94;88.05;99857.59;5035278;28;20116;-70
2021/12/02 06:36:37;;;;;;;1.63;0.75;;;;;;;2.95;87.70;99859.25;5035313;28;20041;-72
2021/12/02 06:39:05;;;;;;;1.70;0.80;;;;;;;2.98;88.33;99861.53;5035277;28;20040;-72
2021/12/02 06:41:30;;;;;;;3.63;0.90;;;;;;;2.97;88.46;99852.66;5034694;28;20044;-73
2021/12/02 06:43:56;;;;;;;4.15;0.93;;;;;;;2.96;88.40;99842.19;5035047;28;20045;-71
2021/12/02 06:46:21;;;;;;;5.63;0.95;;;;;;;2.94;88.82;99850.41;5034970;28;20381;-69
2021/12/02 06:48:48;;;;;;;4.38;1.23;;;;;;;2.96;88.52;99852.88;5034840;28;20480;-69
2021/12/02 06:51:14;;;;;;;5.05;1.77;;;;;;;2.94;88.81;99853.06;5034411;28;20104;-72
2021/12/02 06:53:40;;;;;;;6.35;1.75;;;;;;;2.91;88.61;99877.53;5034400;28;20132;-68
2021/12/02 06:56:05;;;;;;;4.20;1.60;;;;;;;2.91;88.98;99880.19;5035204;28;20030;-72
2021/12/02 06:58:31;;;;;;;5.47;1.90;;;;;;;2.87;88.75;99889.66;5034627;28;20091;-71
2021/12/02 07:00:56;;;;;;;5.30;2.10;;;;;;;2.89;88.94;99892.94;5030415;28;20064;-69
2021/12/02 07:03:21;;;;;;;7.25;2.22;;;;;;;2.85;88.82;99899.69;5014550;28;20058;-72
2021/12/02 07:05:46;;;;;;;3.83;1.60;;;;;;;2.78;88.25;99898.84;5034109;28;20029;-70
2021/12/02 07:08:13;;;;;;;5.55;1.60;;;;;;;2.76;87.98;99901.72;5035203;28;20028;-70
2021/12/02 07:10:38;;;;;;;7.28;1.60;;;;;;;2.75;88.44;99909.91;5034479;28;20038;-73
2021/12/02 07:13:04;;;;;;;3.50;1.73;;;;;;;2.77;88.54;99906.03;5028707;28;20033;-74
2021/12/02 07:15:42;;;;;;;3.13;2.08;;;;;;;2.84;89.25;99911.44;5034468;28;20366;-69
2021/12/02 07:18:13;;;;;;;6.70;2.30;;;;;;;2.93;89.28;99914.72;5034743;28;20030;-70
2021/12/02 07:20:39;;;;;;;5.97;2.15;;;;;;;2.96;88.28;99909.00;5034335;28;20029;-72
2021/12/02 07:23:05;;;;;;;5.38;2.13;;;;;;;2.90;88.49;99923.16;5034170;28;20120;-73
2021/12/02 07:25:31;;;;;;;4.22;2.00;;;;;;;2.89;88.29;99921.50;5034197;28;20116;-73
2021/12/02 07:27:57;;;;;;;5.20;1.88;;;;;;;2.90;88.13;99933.84;5034555;28;20025;-70
2021/12/02 07:30:22;;;;;;;6.70;2.30;;;;;;;2.89;87.08;99929.53;5034079;28;20431;-73
2021/12/02 07:32:53;;;;;;;3.67;1.63;;;;;;;2.89;86.74;99935.69;5034096;28;20029;-71
2021/12/02 07:35:19;;;;;;;8.13;2.30;;;;;;;2.79;87.33;99936.06;5033756;28;20072;-72
2021/12/02 07:37:57;;;;;;;8.77;2.70;;;;;;;2.80;88.55;99935.03;5034139;28;20069;-72
2021/12/02 07:40:24;;;;;;;5.72;1.90;;;;;;;2.84;88.23;99943.50;5033985;28;20034;-71
2021/12/02 07:42:53;;;;;;;6.78;2.10;;;;;;;2.88;88.33;99944.72;5034020;28;20041;-72
2021/12/02 07:45:24;;;;;;;9.15;2.22;;;;;;;2.91;88.61;99952.34;5033529;28;20469;-69
2021/12/02 07:47:50;;;;;;;6.00;2.30;;;;;;;2.94;88.34;99946.59;5032897;28;20416;-73
2021/12/02 07:50:16;;;;;;;7.00;1.90;;;;;;;2.92;88.45;99948.66;5034053;28;20040;-72
2021/12/02 07:52:54;;;;;;;6.95;2.05;;;;;;;2.91;88.23;99938.97;5034078;28;20036;-69
2021/12/02 07:55:22;;;;;;;3.90;1.75;;;;;;;2.91;88.08;99947.00;5017201;28;20036;-72
2021/12/02 07:57:49;;;;;;;12.63;2.20;;;;;;;2.91;87.33;99952.34;5033737;28;20057;-72
2021/12/02 08:00:17;;;;;;;5.15;1.95;;;;;;;2.88;87.95;99954.59;5033874;28;20040;-72
2021/12/02 08:02:44;;;;;;;6.05;2.22;;;;;;;2.84;88.22;99954.19;5012209;28;20508;-73
2021/12/02 08:05:10;;;;;;;9.60;2.60;;;;;;;2.88;87.83;99959.94;5014089;28;20030;-72
2021/12/02 08:07:38;;;;;;;9.98;2.40;;;;;;;2.81;88.05;99960.72;5013575;28;20033;-72
2021/12/02 08:10:04;;;;;;;3.47;2.20;;;;;;;2.82;87.99;99956.19;5014104;28;20029;-73
2021/12/02 08:12:30;;;;;;;7.32;2.60;;;;;;;2.80;88.92;99955.59;5013778;28;20053;-72
2021/12/02 08:14:55;;;;;;;6.20;2.35;;;;;;;2.80;88.51;99967.09;5013861;28;20022;-72
2021/12/02 08:17:20;;;;;;;5.00;2.60;;;;;;;2.78;88.19;99960.31;5013796;28;20384;-71
2021/12/02 08:19:45;;;;;;;5.90;2.75;;;;;;;2.79;87.98;99972.63;5013624;28;20041;-72
2021/12/02 08:22:11;;;;;;;4.82;2.40;;;;;;;2.78;88.47;99973.66;5013751;28;20067;-73
2021/12/02 08:24:36;;;;;;;5.22;2.30;;;;;;;2.77;88.64;99966.66;5013245;28;20090;-70
2021/12/02 08:27:01;;;;;;;11.27;2.85;;;;;;;2.77;88.23;99970.16;5014019;28;20030;-72
2021/12/02 08:29:26;;;;;;;7.22;2.40;;;;;;;2.76;88.06;99970.34;5014568;28;20434;-72
2021/12/02 08:31:52;;;;;;;5.32;2.60;;;;;;;2.73;87.72;99973.41;5033425;28;20025;-73
2021/12/02 08:34:18;;;;;;;8.13;2.90;;;;;;;2.72;88.06;99971.75;5033071;28;20488;-72
2021/12/02 08:36:50;;;;;;;4.57;2.97;;;;;;;2.71;88.48;99975.47;5032927;28;20029;-70
2021/12/02 08:39:24;;;;;;;6.28;2.42;;;;;;;2.66;87.96;99979.53;5032768;28;20384;-70
2021/12/02 08:41:51;;;;;;;6.15;2.45;;;;;;;2.66;88.55;99976.03;5033168;28;20060;-74
2021/12/02 08:44:17;;;;;;;6.25;2.60;;;;;;;2.67;88.37;99980.34;5032641;28;20453;-69
2021/12/02 08:46:43;;;;;;;8.18;1.95;;;;;;;2.68;87.94;99981.19;5032470;28;20029;-72
2021/12/02 08:49:08;;;;;;;7.22;2.15;;;;;;;2.63;88.40;99990.59;5032807;28;20080;-70
2021/12/02 08:51:34;;;;;;;5.38;2.10;;;;;;;2.63;88.71;100003.16;5032803;28;20365;-72
2021/12/02 08:53:59;;;;;;;3.30;1.90;;;;;;;2.64;89.14;100007.44;5032526;28;20104;-73
2021/12/02 08:56:25;;;;;;;5.03;2.15;;;;;;;2.70;88.59;100020.03;5031373;28;20508;-73
2021/12/02 08:58:52;;;;;;;8.75;2.50;;;;;;;2.72;89.19;100019.84;5032684;28;20549;-70
2021/12/02 09:01:17;;;;;;;5.63;2.35;;;;;;;2.74;89.50;100034.66;5029174;28;20491;-71
2021/12/02 09:03:42;;;;;;;8.15;2.45;;;;;;;2.81;88.69;100038.22;5032525;28;20037;-69
2021/12/02 09:06:11;;;;;;;8.35;2.13;;;;;;;2.80;88.65;100031.22;5032938;28;20465;-69
2021/12/02 09:08:37;;;;;;;7.50;2.15;;;;;;;2.79;89.34;100042.09;5032433;28;20030;-68
2021/12/02 09:11:03;;;;;;;6.82;2.30;;;;;;;2.83;88.64;100052.19;5032484;28;20037;-73
2021/12/02 09:13:29;;;;;;;6.45;2.30;;;;;;;2.84;89.41;100048.50;5014549;28;20038;-74
2021/12/02 09:15:55;;;;;;;6.93;2.42;;;;;;;2.88;89.35;100059.63;5032387;28;20040;-71
2021/12/02 09:18:20;;;;;;;9.48;2.80;;;;;;;2.97;88.99;100065.66;5031878;28;20041;-71
2021/12/02 09:20:46;;;;;;;8.32;2.13;;;;;;;3.00;88.05;100062.59;5032211;28;20029;-71
2021/12/02 09:23:13;;;;;;;6.35;1.80;;;;;;;2.96;87.81;100064.00;5032360;28;20088;-71
2021/12/02 09:25:38;;;;;;;6.85;2.03;;;;;;;2.98;86.71;100062.78;5032150;28;20049;-72
2021/12/02 09:28:04;;;;;;;11.00;2.35;;;;;;;2.92;87.79;100068.91;5032435;28;20420;-72
2021/12/02 09:30:29;;;;;;;7.97;2.17;;;;;;;2.93;87.50;100085.78;5031805;28;20064;-73
2021/12/02 09:32:54;;;;;;;8.32;2.00;;;;;;;2.91;87.45;100077.13;5032317;28;20079;-73
2021/12/02 09:35:20;;;;;;;11.05;2.40;;;;;;;2.94;87.87;100069.53;5032230;28;20091;-71
2021/12/02 09:37:46;;;;;;;5.18;2.65;;;;;;;2.91;87.13;100082.47;5031866;28;20040;-72
2021/12/02 09:40:13;;;;;;;5.45;1.80;;;;;;;2.89;87.61;100079.19;5032280;28;20029;-71
2021/12/02 09:42:39;;;;;;;7.82;1.73;;;;;;;2.91;87.83;100080.63;5031651;28;20522;-72
2021/12/02 09:45:05;;;;;;;8.93;1.63;;;;;;;2.92;88.20;100076.94;5028901;28;20042;-72
2021/12/02 09:47:34;;;;;;;8.15;2.05;;;;;;;2.96;87.88;100086.22;5031201;28;20120;-71
2021/12/02 09:50:06;;;;;;;6.00;2.03;;;;;;;2.95;87.26;100079.22;5032181;28;20087;-70
2021/12/02 09:52:36;;;;;;;6.25;1.60;;;;;;;2.99;87.17;100080.50;5031444;28;20427;-69
2021/12/02 09:55:25;;;;;;;7.82;2.55;;;;;;;2.99;88.29;100087.69;5027777;28;20519;-69
2021/12/02 09:57:57;;;;;;;10.18;2.33;;;;;;;3.05;87.71;100086.06;5012612;28;20516;-73
2021/12/02 10:00:37;;;;;;;9.10;2.00;;;;;;;3.05;87.06;100078.06;5027227;28;20045;-72
2021/12/02 10:03:06;;;;;;;6.97;1.80;;;;;;;3.03;88.10;100077.44;5029232;28;20150;-73
2021/12/02 10:05:39;;;;;;;8.65;2.35;;;;;;;3.04;88.43;100071.06;5031846;28;20369;-72
2021/12/02 10:08:07;;;;;;;8.65;2.30;;;;;;;3.13;88.55;100078.72;5031460;28;20617;-71
2021/12/02 10:10:38;;;;;;;4.65;1.67;;;;;;;3.21;88.47;100080.44;5030981;28;20029;-72
2021/12/02 10:13:49;;;;;;;5.25;1.90;;;;;;;3.25;87.66;100089.72;5030612;28;20456;-71
2021/12/02 10:16:27;;;;;;;10.23;2.25;;;;;;;3.25;88.29;100086.22;5021971;28;20057;-74
2021/12/02 10:21:40;;;;;;;9.90;2.47;;;;;;;3.35;87.06;100089.34;5031546;28;20120;-74
2021/12/02 10:24:11;;;;;;;8.23;2.22;;;;;;;3.36;87.14;100094.50;5028596;28;20025;-69
2021/12/02 10:26:40;;;;;;;6.95;1.90;;;;;;;3.40;87.52;100092.28;5013338;28;20036;-75
2021/12/02 10:29:34;;;;;;;6.32;2.70;;;;;;;3.45;88.45;100105.06;5015099;28;20496;-74
2021/12/02 10:32:04;;;;;;;10.13;2.95;;;;;;;3.41;88.19;100103.81;5012455;28;20049;-71
2021/12/02 10:34:30;;;;;;;7.97;2.28;;;;;;;3.38;87.63;100099.66;4997884;28;20489;-75
2021/12/02 10:37:09;;;;;;;15.48;2.90;;;;;;;3.41;87.69;100103.81;5023372;28;20061;-77
2021/12/02 10:39:35;;;;;;;6.25;2.65;;;;;;;3.36;86.64;100115.09;5035171;28;20132;-69
2021/12/02 10:42:07;;;;;;;6.65;2.10;;;;;;;3.37;86.62;100114.06;5017696;28;20088;-72
2021/12/02 10:44:34;;;;;;;;;;;;;;;3.39;87.00;100120.03;5035192;28;20049;-70
2021/12/02 10:47:05;;;;;;;5.68;2.05;;;;;;;3.30;85.86;100118.53;5035392;28;19917;-71
2021/12/02 10:49:44;;;;;;;7.03;2.30;;;;;;;3.27;87.19;100124.28;5035093;28;20082;-72
2021/12/02 10:52:20;;;;;;;7.32;2.40;;;;;;;3.29;86.77;100130.25;5033903;28;20037;-69
2021/12/02 10:54:49;;;;;;;9.57;2.58;;;;;;;3.27;88.36;100130.44;5035016;28;20025;-71
2021/12/02 10:57:25;;;;;;;6.82;1.92;;;;;;;3.32;87.38;100130.72;5035212;28;20033;-74
2021/12/02 10:59:56;;;;;;;9.05;2.67;;;;;;;3.35;88.04;100133.00;5034422;28;20120;-71
2021/12/02 11:02:31;;;;;;;7.72;2.47;;;;;;;3.43;87.74;100131.16;5031671;28;20107;-75
2021/12/02 11:05:00;;;;;;;11.25;3.10;;;;;;;3.49;87.75;100127.72;5034804;28;20048;-74
2021/12/02 11:07:28;;;;;;;12.07;3.55;;;;;;;3.56;88.25;100131.25;5034638;28;20128;-74
2021/12/02 11:09:55;;;;;;;10.68;3.30;;;;;;;3.60;87.11;100129.03;5033972;28;20052;-74
2021/12/02 11:12:24;;;;;;;7.80;2.60;;;;;;;3.62;87.20;100140.34;5032327;28;20034;-71
2021/12/02 11:14:56;;;;;;;9.63;2.60;;;;;;;3.68;86.67;100137.72;5030198;28;20060;-73
2021/12/02 11:17:22;;;;;;;14.10;2.67;;;;;;;3.65;86.35;100139.94;5026057;28;20061;-74
2021/12/02 11:19:50;;;;;;;8.65;2.67;;;;;;;3.60;87.41;100145.09;5034581;28;20083;-75
2021/12/02 11:22:19;;;;;;;9.93;2.53;;;;;;;3.66;87.13;100149.66;5034349;28;20032;-74
2021/12/02 11:24:45;;;;;;;5.95;2.58;;;;;;;3.67;87.41;100136.06;5026676;28;20476;-74
2021/12/02 11:27:18;;;;;;;8.68;3.00;;;;;;;3.67;87.40;100140.59;5014745;28;20548;-73
2021/12/02 11:30:07;;;;;;;7.90;2.63;;;;;;;3.68;87.91;100137.72;5031707;28;20032;-72
2021/12/02 11:32:41;;;;;;;7.63;2.10;;;;;;;3.73;86.81;100145.97;5044813;28;20033;-74
2021/12/02 11:35:08;;;;;;;7.95;2.70;;;;;;;3.78;87.42;100144.56;5034475;28;20032;-73
2021/12/02 11:37:36;;;;;;;9.98;2.30;;;;;;;3.86;86.46;100152.44;5016517;28;20034;-72
2021/12/02 11:40:07;;;;;;;5.97;1.90;;;;;;;3.88;86.28;100153.88;5016592;28;20525;-69
2021/12/02 11:42:32;;;;;;;8.43;2.00;;;;;;;3.96;86.28;100166.28;5034328;28;20029;-69
2021/12/02 11:44:58;;;;;;;5.22;1.48;;;;;;;3.90;83.88;100159.84;5034018;28;20041;-72
2021/12/02 11:47:24;;;;;;;7.60;1.55;;;;;;;3.83;84.32;100171.56;5028672;28;20384;-70
2021/12/02 11:49:49;;;;;;;4.85;1.10;;;;;;;3.84;83.27;100157.97;5027891;28;20384;-71
2021/12/02 11:52:14;;;;;;;6.95;1.48;;;;;;;3.81;84.30;100174.44;5033502;28;20029;-72
2021/12/02 11:54:40;;;;;;;3.35;0.90;;;;;;;3.86;84.06;100166.63;5033909;28;20435;-72
2021/12/02 11:57:06;;;;;;;5.70;0.90;;;;;;;3.89;84.14;100160.06;5033155;28;20429;-71